createdAt,value
2023-01-22T00:02:07.534Z,16.13
2023-01-22T00:04:42.910Z,19.90
2023-01-22T00:07:23.761Z,16.80
2023-01-22T00:09:58.687Z,18.55
2023-01-22T00:12:37.224Z,16.47
2023-01-22T00:15:13.730Z,16.35
2023-01-22T00:17:57.765Z,19.05
2023-01-22T00:20:41.528Z,17.65
2023-01-22T00:23:11.238Z,15.98
2023-01-22T00:25:46.557Z,17.60
2023-01-22T00:28:19.890Z,20.38
2023-01-22T00:31:10.552Z,14.40
2023-01-22T00:33:38.876Z,20.55
2023-01-22T00:36:14.340Z,20.80
2023-01-22T00:38:44.064Z,19.30
2023-01-22T00:41:13.708Z,20.25
2023-01-22T00:43:43.682Z,17.83
2023-01-22T00:46:15.154Z,15.13
2023-01-22T00:48:45.367Z,15.32
2023-01-22T00:51:18.630Z,19.00
2023-01-22T00:53:47.308Z,17.25
2023-01-22T00:56:19.448Z,18.80
2023-01-22T00:58:49.847Z,18.13
2023-01-22T01:01:20.882Z,13.30
2023-01-22T01:03:47.944Z,19.73
2023-01-22T01:06:23.724Z,16.20
2023-01-22T01:08:53.770Z,18.60
2023-01-22T01:11:24.143Z,18.58
2023-01-22T01:14:00.025Z,17.83
2023-01-22T01:16:30.066Z,19.15
2023-01-22T01:18:59.788Z,17.58
2023-01-22T01:21:27.765Z,19.42
2023-01-22T01:24:02.478Z,20.17
2023-01-22T01:26:32.665Z,21.27
2023-01-22T01:29:02.866Z,18.80
2023-01-22T01:31:35.731Z,19.23
2023-01-22T01:34:07.395Z,19.13
2023-01-22T01:36:54.046Z,19.20
2023-01-22T01:42:59.631Z,19.65
2023-01-22T01:45:45.443Z,22.15
2023-01-22T01:48:52.274Z,19.60
2023-01-22T01:51:45.006Z,20.25
2023-01-22T01:54:31.036Z,17.80
2023-01-22T01:57:31.650Z,15.95
2023-01-22T02:00:23.912Z,20.65
2023-01-22T02:03:04.018Z,17.88
2023-01-22T02:05:53.842Z,20.67
2023-01-22T02:08:58.555Z,20.17
2023-01-22T02:11:49.480Z,17.40
2023-01-22T02:14:47.902Z,20.27
2023-01-22T02:17:51.375Z,18.83
2023-01-22T02:23:27.438Z,19.88
2023-01-22T02:26:21.212Z,18.45
2023-01-22T02:29:02.127Z,19.50
2023-01-22T02:31:43.375Z,18.67
2023-01-22T02:34:32.341Z,18.33
2023-01-22T02:37:14.219Z,21.60
2023-01-22T02:39:49.507Z,24.92
2023-01-22T02:45:42.880Z,23.63
2023-01-22T02:48:19.843Z,19.20
2023-01-22T02:51:17.924Z,23.80
2023-01-22T02:54:15.164Z,18.35
2023-01-22T02:56:59.723Z,24.58
2023-01-22T02:59:36.660Z,22.02
2023-01-22T03:05:55.144Z,23.65
2023-01-22T03:08:38.560Z,21.73
2023-01-22T03:11:18.751Z,20.58
2023-01-22T03:14:17.232Z,23.92
2023-01-22T03:17:17.948Z,21.15
2023-01-22T03:20:18.227Z,22.35
2023-01-22T03:23:15.486Z,24.73
2023-01-22T03:26:20.749Z,21.23
2023-01-22T03:28:53.610Z,20.08
2023-01-22T03:31:45.966Z,26.38
2023-01-22T03:34:49.183Z,20.90
2023-01-22T03:40:17.935Z,20.20
2023-01-22T03:43:02.724Z,20.67
2023-01-22T03:45:45.955Z,19.70
2023-01-22T03:51:31.929Z,22.25
2023-01-22T03:54:21.668Z,22.75
2023-01-22T03:57:23.549Z,24.80
2023-01-22T04:00:32.968Z,22.23
2023-01-22T04:03:12.094Z,24.73
2023-01-22T04:06:02.373Z,24.80
2023-01-22T04:08:41.548Z,28.20
2023-01-22T04:11:24.490Z,27.50
2023-01-22T04:14:08.940Z,26.15
2023-01-22T04:16:49.937Z,22.17
2023-01-22T04:20:03.909Z,22.52
2023-01-22T04:23:04.971Z,25.73
2023-01-22T04:25:57.569Z,20.45
2023-01-22T04:28:48.115Z,23.10
2023-01-22T04:31:34.408Z,20.05
2023-01-22T04:34:17.064Z,23.83
2023-01-22T04:37:09.502Z,21.55
2023-01-22T04:40:19.337Z,18.45
2023-01-22T04:43:00.219Z,20.30
2023-01-22T04:45:51.701Z,24.67
2023-01-22T04:48:38.871Z,29.85
2023-01-22T04:51:30.118Z,23.52
2023-01-22T04:54:26.163Z,22.23
2023-01-22T04:57:07.856Z,22.45
2023-01-22T04:59:52.631Z,23.73
2023-01-22T05:02:44.227Z,27.67
2023-01-22T05:05:24.203Z,27.23
2023-01-22T05:08:11.007Z,24.77
2023-01-22T05:10:51.657Z,24.10
2023-01-22T05:13:39.542Z,25.40
2023-01-22T05:16:24.170Z,20.25
2023-01-22T05:19:27.782Z,24.73
2023-01-22T05:22:22.305Z,28.45
2023-01-22T05:27:48.801Z,23.88
2023-01-22T05:30:39.074Z,22.63
2023-01-22T05:34:00.238Z,18.98
2023-01-22T05:36:45.757Z,20.83
2023-01-22T05:39:36.232Z,23.10
2023-01-22T05:42:26.674Z,21.05
2023-01-22T05:45:14.044Z,24.33
2023-01-22T05:51:18.314Z,21.83
2023-01-22T05:54:18.315Z,24.30
2023-01-22T05:57:05.176Z,23.95
2023-01-22T05:59:57.753Z,18.58
2023-01-22T06:05:29.326Z,22.40
2023-01-22T06:11:27.949Z,20.05
2023-01-22T06:14:08.515Z,25.40
2023-01-22T06:17:09.983Z,22.50
2023-01-22T06:20:10.726Z,22.23
2023-01-22T06:22:47.493Z,22.70
2023-01-22T06:25:32.065Z,21.58
2023-01-22T06:28:14.665Z,25.08
2023-01-22T06:31:00.694Z,29.40
2023-01-22T06:34:08.406Z,24.85
2023-01-22T06:36:59.466Z,23.75
2023-01-22T06:39:41.604Z,24.80
2023-01-22T06:45:32.063Z,24.75
2023-01-22T06:51:09.546Z,20.75
2023-01-22T06:54:01.221Z,22.98
2023-01-22T07:00:18.905Z,21.63
2023-01-22T07:03:08.689Z,23.67
2023-01-22T07:06:19.737Z,22.50
2023-01-22T07:09:04.793Z,30.90
2023-01-22T07:12:02.025Z,29.70
2023-01-22T07:17:36.693Z,26.85
2023-01-22T07:20:48.483Z,21.70
2023-01-22T07:23:31.584Z,27.02
2023-01-22T07:26:17.734Z,21.58
2023-01-22T07:29:37.191Z,26.00
2023-01-22T07:32:19.787Z,22.15
2023-01-22T07:35:44.807Z,23.33
2023-01-22T07:38:36.648Z,23.67
2023-01-22T07:41:24.542Z,23.25
2023-01-22T07:44:28.897Z,27.55
2023-01-22T07:47:29.270Z,22.20
2023-01-22T07:50:56.387Z,27.10
2023-01-22T07:53:48.851Z,23.35
2023-01-22T07:59:46.788Z,24.20
2023-01-22T08:02:32.111Z,24.30
2023-01-22T08:05:45.970Z,24.98
2023-01-22T08:08:57.642Z,21.25
2023-01-22T08:11:56.549Z,22.05
2023-01-22T08:14:42.526Z,18.90
2023-01-22T08:17:21.666Z,21.35
2023-01-22T08:20:00.097Z,21.60
2023-01-22T08:22:42.651Z,26.27
2023-01-22T08:25:39.372Z,22.00
2023-01-22T08:28:47.846Z,21.05
2023-01-22T08:31:29.997Z,21.70
2023-01-22T08:34:41.853Z,26.52
2023-01-22T08:37:33.438Z,21.85
2023-01-22T08:40:24.129Z,25.58
2023-01-22T08:43:04.936Z,28.90
2023-01-22T08:45:48.704Z,23.75
2023-01-22T08:48:28.524Z,25.70
2023-01-22T08:51:10.363Z,23.75
2023-01-22T08:54:18.451Z,20.25
2023-01-22T08:57:09.301Z,21.15
2023-01-22T09:00:36.583Z,25.58
2023-01-22T09:03:45.630Z,24.15
2023-01-22T09:06:44.246Z,23.05
2023-01-22T09:09:41.266Z,23.55
2023-01-22T09:15:32.700Z,22.27
2023-01-22T09:18:19.484Z,24.67
2023-01-22T09:21:20.050Z,22.92
2023-01-22T09:24:43.408Z,21.05
2023-01-22T09:27:36.563Z,24.67
2023-01-22T09:30:27.502Z,23.08
2023-01-22T09:33:23.122Z,23.60
2023-01-22T09:42:22.078Z,18.85
2023-01-22T09:51:43.702Z,22.98
2023-01-22T09:54:35.970Z,21.42
2023-01-22T09:57:31.936Z,22.52
2023-01-22T10:00:30.642Z,21.48
2023-01-22T10:03:34.380Z,17.65
2023-01-22T10:06:24.472Z,21.38
2023-01-22T10:09:36.897Z,22.90
2023-01-22T10:12:21.097Z,20.13
2023-01-22T10:15:10.763Z,21.73
2023-01-22T10:18:07.455Z,20.30
2023-01-22T10:21:05.373Z,19.88
2023-01-22T10:23:47.661Z,18.40
2023-01-22T10:26:54.517Z,19.55
2023-01-22T10:29:42.522Z,20.55
2023-01-22T10:32:28.268Z,18.33
2023-01-22T10:35:09.085Z,22.02
2023-01-22T10:37:59.210Z,20.17
2023-01-22T10:41:02.291Z,25.13
2023-01-22T10:44:03.167Z,18.92
2023-01-22T10:47:29.982Z,19.77
2023-01-22T10:50:24.952Z,18.58
2023-01-22T10:52:57.194Z,19.10
2023-01-22T10:55:30.455Z,19.80
2023-01-22T10:58:04.149Z,20.88
2023-01-22T11:00:50.480Z,18.05
2023-01-22T11:05:54.522Z,21.33
2023-01-22T11:08:26.636Z,19.88
2023-01-22T11:11:05.808Z,18.63
2023-01-22T11:13:56.636Z,17.50
2023-01-22T11:16:25.204Z,16.17
2023-01-22T11:18:59.078Z,11.68
2023-01-22T11:21:44.546Z,15.43
2023-01-22T11:24:23.259Z,17.58
2023-01-22T11:27:41.722Z,11.23
2023-01-22T11:31:13.018Z,15.00
2023-01-22T11:33:56.313Z,18.15
2023-01-22T11:36:31.129Z,14.90
2023-01-22T11:39:39.955Z,16.30
2023-01-22T11:42:52.886Z,18.40
2023-01-22T11:45:35.500Z,16.23
2023-01-22T11:49:16.469Z,13.27
2023-01-22T11:56:39.538Z,6.82
2023-01-22T11:59:54.947Z,18.02
2023-01-22T12:02:41.076Z,14.23
2023-01-22T12:05:14.649Z,16.20
2023-01-22T12:08:05.445Z,15.77
2023-01-22T12:11:07.476Z,15.98
2023-01-22T12:13:52.891Z,15.70
2023-01-22T12:16:41.141Z,18.63
2023-01-22T12:19:33.500Z,15.55
2023-01-22T12:22:33.535Z,19.52
2023-01-22T12:25:34.241Z,20.15
2023-01-22T12:28:25.769Z,15.68
2023-01-22T12:31:09.040Z,15.25
2023-01-22T12:33:46.884Z,18.63
2023-01-22T12:36:23.167Z,14.75
2023-01-22T12:39:54.725Z,16.65
2023-01-22T12:42:37.834Z,19.75
2023-01-22T12:45:30.286Z,18.25
2023-01-22T12:48:31.231Z,20.23
2023-01-22T12:50:59.534Z,13.57
2023-01-22T12:53:30.841Z,18.50
2023-01-22T12:56:10.502Z,13.15
2023-01-22T12:58:40.297Z,13.43
2023-01-22T13:01:22.616Z,12.40
2023-01-22T13:04:05.739Z,14.20
2023-01-22T13:06:39.059Z,15.20
2023-01-22T13:09:23.157Z,11.68
2023-01-22T13:11:50.218Z,17.17
2023-01-22T13:14:22.550Z,16.35
2023-01-22T13:16:56.346Z,18.23
2023-01-22T13:19:47.808Z,21.95
2023-01-22T13:22:19.871Z,16.58
2023-01-22T13:24:52.002Z,16.15
2023-01-22T13:27:37.257Z,13.93
2023-01-22T13:30:16.818Z,15.93
2023-01-22T13:39:37.915Z,11.00
2023-01-22T13:42:05.974Z,10.13
2023-01-22T13:44:36.003Z,8.30
2023-01-22T13:47:03.656Z,14.73
2023-01-22T13:49:32.862Z,12.13
2023-01-22T13:52:07.361Z,16.13
2023-01-22T13:54:42.977Z,13.07
2023-01-22T13:57:15.113Z,11.15
2023-01-22T13:59:56.524Z,14.15
2023-01-22T14:02:44.185Z,12.45
2023-01-22T14:05:23.405Z,18.27
2023-01-22T14:07:51.148Z,13.10
2023-01-22T14:10:24.097Z,12.23
2023-01-22T14:13:01.850Z,17.00
2023-01-22T14:15:28.674Z,15.52
2023-01-22T14:18:11.277Z,13.65
2023-01-22T14:20:42.289Z,12.23
2023-01-22T14:23:09.041Z,16.50
2023-01-22T14:25:40.855Z,15.60
2023-01-22T14:28:08.041Z,17.38
2023-01-22T14:30:34.872Z,13.13
2023-01-22T14:33:02.089Z,13.45
2023-01-22T14:35:31.142Z,17.52
2023-01-22T14:37:57.932Z,14.88
2023-01-22T14:40:26.170Z,13.45
2023-01-22T14:42:53.117Z,12.60
2023-01-22T14:45:22.803Z,14.73
2023-01-22T14:47:51.854Z,13.88
2023-01-22T14:50:19.675Z,14.18
2023-01-22T14:52:47.139Z,16.10
2023-01-22T14:55:14.385Z,15.38
2023-01-22T14:57:41.150Z,41.33
2023-01-22T15:00:08.940Z,20.02
2023-01-22T15:02:40.680Z,31.65
2023-01-22T15:05:29.818Z,16.63
2023-01-22T15:07:57.167Z,14.65
2023-01-22T15:10:24.319Z,15.65
2023-01-22T15:12:53.110Z,15.20
2023-01-22T15:15:25.375Z,18.65
2023-01-22T15:17:57.546Z,13.63
2023-01-22T15:20:25.205Z,14.35
2023-01-22T15:22:53.889Z,14.80
2023-01-22T15:25:21.063Z,15.73
2023-01-22T15:27:48.317Z,14.75
2023-01-22T15:30:18.331Z,14.95
2023-01-22T15:32:46.191Z,13.77
2023-01-22T15:35:13.334Z,13.73
2023-01-22T15:37:40.379Z,12.60
2023-01-22T15:40:09.903Z,14.65
2023-01-22T15:42:37.130Z,14.73
2023-01-22T15:45:05.722Z,15.25
2023-01-22T15:47:32.972Z,14.00
2023-01-22T15:50:00.217Z,12.32
2023-01-22T15:52:28.088Z,17.50
2023-01-22T15:54:55.543Z,18.95
2023-01-22T15:57:23.246Z,16.52
2023-01-22T15:59:52.645Z,20.17
2023-01-22T16:02:20.221Z,14.10
2023-01-22T16:04:47.740Z,15.73
2023-01-22T16:07:14.782Z,15.55
2023-01-22T16:09:41.931Z,17.55
2023-01-22T16:12:09.802Z,19.10
2023-01-22T16:14:37.050Z,15.85
2023-01-22T16:17:04.911Z,16.30
2023-01-22T16:19:32.164Z,20.75
2023-01-22T16:21:59.315Z,27.73
2023-01-22T16:24:26.895Z,20.67
2023-01-22T16:26:54.127Z,14.30
2023-01-22T16:29:21.281Z,17.83
2023-01-22T16:31:48.364Z,22.10
2023-01-22T16:34:18.650Z,18.95
2023-01-22T16:36:45.836Z,10.05
2023-01-22T16:39:23.538Z,21.05
2023-01-22T16:41:51.886Z,19.05
2023-01-22T16:44:27.505Z,20.48
2023-01-22T16:46:57.748Z,18.23
2023-01-22T16:49:28.894Z,21.80
2023-01-22T16:52:00.294Z,20.10
2023-01-22T16:54:35.378Z,21.35
2023-01-22T16:57:05.498Z,22.88
2023-01-22T16:59:34.098Z,18.17
2023-01-22T17:02:02.776Z,26.23
2023-01-22T17:04:30.247Z,22.38
2023-01-22T17:06:59.034Z,19.80
2023-01-22T17:09:28.312Z,19.80
2023-01-22T17:11:58.029Z,19.17
2023-01-22T17:14:27.433Z,23.33
2023-01-22T17:16:54.795Z,28.35
2023-01-22T17:19:22.347Z,26.30
2023-01-22T17:21:55.326Z,30.10
2023-01-22T17:24:22.822Z,27.92
2023-01-22T17:26:51.804Z,24.15
2023-01-22T17:29:19.747Z,24.65
2023-01-22T17:31:47.335Z,24.75
2023-01-22T17:34:14.881Z,22.17
2023-01-22T17:36:42.648Z,27.90
2023-01-22T17:39:15.822Z,25.05
2023-01-22T17:41:43.706Z,21.77
2023-01-22T17:44:10.941Z,19.75
2023-01-22T17:46:38.311Z,23.02
2023-01-22T17:49:05.963Z,21.50
2023-01-22T17:51:35.058Z,26.63
2023-01-22T17:54:03.850Z,21.80
2023-01-22T17:56:33.967Z,28.75
2023-01-22T17:59:03.574Z,27.50
2023-01-22T18:01:32.634Z,29.13
2023-01-22T18:04:01.991Z,26.17
2023-01-22T18:06:29.744Z,28.10
2023-01-22T18:08:57.192Z,30.95
2023-01-22T18:11:29.664Z,28.92
2023-01-22T18:13:58.454Z,28.63
2023-01-22T18:16:28.276Z,22.92
2023-01-22T18:18:57.282Z,27.30
2023-01-22T18:21:25.245Z,33.28
2023-01-22T18:23:52.614Z,28.58
2023-01-22T18:26:23.093Z,33.55
2023-01-22T18:28:51.391Z,30.58
2023-01-22T18:31:22.430Z,25.13
2023-01-22T18:33:49.910Z,24.20
2023-01-22T18:36:20.008Z,28.55
2023-01-22T18:38:48.194Z,31.00
2023-01-22T18:41:23.652Z,30.48
2023-01-22T18:43:56.303Z,32.38
2023-01-22T18:46:25.830Z,30.38
2023-01-22T18:48:55.831Z,29.92
2023-01-22T18:51:23.755Z,30.83
2023-01-22T18:53:54.018Z,28.50
2023-01-22T18:56:22.113Z,28.40
2023-01-22T18:58:49.255Z,28.80
2023-01-22T19:01:23.413Z,40.35
2023-01-22T19:03:56.931Z,32.75
2023-01-22T19:06:34.664Z,37.53
2023-01-22T19:09:05.871Z,38.38
2023-01-22T19:11:36.866Z,29.65
2023-01-22T19:14:06.980Z,29.38
2023-01-22T19:16:35.441Z,35.10
2023-01-22T19:19:07.810Z,35.25
2023-01-22T19:21:34.868Z,35.60
2023-01-22T19:24:02.625Z,36.47
2023-01-22T19:26:35.633Z,44.38
2023-01-22T19:29:09.427Z,47.83
2023-01-22T19:31:42.524Z,54.97
2023-01-22T19:34:12.328Z,42.97
2023-01-22T19:36:39.570Z,46.47
2023-01-22T19:39:12.476Z,45.88
2023-01-22T19:41:41.043Z,41.05
2023-01-22T19:44:10.144Z,44.40
2023-01-22T19:46:40.013Z,47.50
2023-01-22T19:49:09.485Z,38.30
2023-01-22T19:51:36.916Z,38.55
2023-01-22T19:54:08.453Z,36.58
2023-01-22T19:56:37.671Z,36.67
2023-01-22T19:59:25.108Z,39.13
2023-01-22T20:01:55.866Z,38.28
2023-01-22T20:04:26.385Z,35.83
2023-01-22T20:06:59.647Z,38.03
2023-01-22T20:09:30.517Z,37.20
2023-01-22T20:12:00.211Z,38.88
2023-01-22T20:14:32.994Z,41.28
2023-01-22T20:17:01.477Z,43.08
2023-01-22T20:19:38.551Z,39.90
2023-01-22T20:22:12.861Z,46.30
2023-01-22T20:24:41.585Z,40.83
2023-01-22T20:27:12.209Z,34.22
2023-01-22T20:29:40.935Z,41.70
2023-01-22T20:32:08.355Z,32.35
2023-01-22T20:34:35.609Z,39.78
2023-01-22T20:37:03.033Z,39.08
2023-01-22T20:39:30.408Z,48.08
2023-01-22T20:41:57.541Z,36.65
2023-01-22T20:44:25.000Z,36.40
2023-01-22T20:46:52.145Z,47.03
2023-01-22T20:49:19.291Z,40.58
2023-01-22T20:51:49.004Z,40.47
2023-01-22T20:54:16.065Z,40.78
2023-01-22T20:56:43.206Z,43.10
2023-01-22T20:59:12.397Z,40.65
2023-01-22T21:01:40.288Z,37.72
2023-01-22T21:04:08.343Z,38.35
2023-01-22T21:06:37.244Z,31.45
2023-01-22T21:09:05.614Z,40.00
2023-01-22T21:11:34.189Z,34.78
2023-01-22T21:14:04.581Z,38.15
2023-01-22T21:16:35.054Z,34.75
2023-01-22T21:19:05.665Z,38.53
2023-01-22T21:21:34.183Z,33.75
2023-01-22T21:24:02.122Z,33.80
2023-01-22T21:26:32.460Z,38.10
2023-01-22T21:29:05.475Z,34.83
2023-01-22T21:31:36.367Z,35.13
2023-01-22T21:34:05.628Z,36.15
2023-01-22T21:36:38.918Z,30.75
2023-01-22T21:39:10.017Z,36.75
2023-01-22T21:41:38.987Z,29.55
2023-01-22T21:44:25.450Z,28.88
2023-01-22T21:46:52.654Z,35.42
2023-01-22T21:49:24.552Z,31.77
2023-01-22T21:51:54.134Z,38.55
2023-01-22T21:54:25.371Z,27.33
2023-01-22T21:56:53.152Z,39.53
2023-01-22T21:59:20.697Z,33.38
2023-01-22T22:01:50.988Z,32.65
2023-01-22T22:04:19.414Z,36.83
2023-01-22T22:06:46.787Z,32.13
2023-01-22T22:09:17.408Z,31.58
2023-01-22T22:11:44.997Z,37.20
2023-01-22T22:14:12.699Z,32.22
2023-01-22T22:16:39.797Z,32.53
2023-01-22T22:19:15.809Z,30.55
2023-01-22T22:21:42.642Z,22.08
2023-01-22T22:24:10.503Z,33.45
2023-01-22T22:26:40.663Z,24.90
2023-01-22T22:29:08.670Z,27.17
2023-01-22T22:31:36.445Z,28.50
2023-01-22T22:34:04.401Z,28.50
2023-01-22T22:36:32.787Z,26.48
2023-01-22T22:39:03.687Z,28.23
2023-01-22T22:41:33.888Z,35.03
2023-01-22T22:44:01.583Z,28.45
2023-01-22T22:46:35.127Z,24.73
2023-01-22T22:49:03.700Z,27.27
2023-01-22T22:51:36.269Z,23.58
2023-01-22T22:54:11.846Z,23.60
2023-01-22T22:56:42.203Z,26.75
2023-01-22T22:59:09.832Z,21.10
2023-01-22T23:01:37.897Z,28.10
2023-01-22T23:04:06.765Z,26.92
2023-01-22T23:06:36.100Z,23.45
2023-01-22T23:09:11.726Z,27.08
2023-01-22T23:11:39.288Z,23.92
2023-01-22T23:14:07.598Z,19.83
2023-01-22T23:16:37.868Z,24.27
2023-01-22T23:19:08.524Z,25.38
2023-01-22T23:21:36.322Z,26.83
2023-01-22T23:24:04.015Z,22.92
2023-01-22T23:26:31.002Z,27.58
2023-01-22T23:29:01.947Z,31.60
2023-01-22T23:31:31.095Z,28.88
2023-01-22T23:33:58.888Z,25.80
2023-01-22T23:36:26.206Z,32.17
2023-01-22T23:38:53.445Z,21.65
2023-01-22T23:41:21.013Z,20.02
2023-01-22T23:43:48.066Z,24.05
2023-01-22T23:46:17.852Z,30.27
2023-01-22T23:48:44.951Z,25.85
2023-01-22T23:51:14.176Z,21.83
2023-01-22T23:53:43.716Z,18.05
2023-01-22T23:56:12.026Z,30.20
2023-01-22T23:58:39.134Z,25.98
